sensor_id;sensor_type;location;lat;lon;timestamp;P1;durP1;ratioP1;P2;durP2;ratioP2
63089;SDS011;49174;43.198;27.824;2023-04-01T00:00:30;32.00;;;23.02;;
63089;SDS011;49174;43.198;27.824;2023-04-01T00:02:56;31.58;;;21.77;;
63089;SDS011;49174;43.198;27.824;2023-04-01T00:05:22;32.88;;;20.58;;
63089;SDS011;49174;43.198;27.824;2023-04-01T00:07:49;31.00;;;21.02;;
63089;SDS011;49174;43.198;27.824;2023-04-01T00:10:15;25.00;;;17.08;;
63089;SDS011;49174;43.198;27.824;2023-04-01T00:12:41;26.80;;;18.40;;
63089;SDS011;49174;43.198;27.824;2023-04-01T00:15:07;26.42;;;17.15;;
63089;SDS011;49174;43.198;27.824;2023-04-01T00:17:34;26.88;;;15.93;;
63089;SDS011;49174;43.198;27.824;2023-04-01T00:20:00;25.63;;;16.33;;
63089;SDS011;49174;43.198;27.824;2023-04-01T00:22:26;23.55;;;15.50;;
63089;SDS011;49174;43.198;27.824;2023-04-01T00:24:52;25.27;;;16.45;;
63089;SDS011;49174;43.198;27.824;2023-04-01T00:27:18;24.42;;;17.27;;
63089;SDS011;49174;43.198;27.824;2023-04-01T00:29:45;24.25;;;16.33;;
63089;SDS011;49174;43.198;27.824;2023-04-01T00:32:11;25.08;;;15.18;;
63089;SDS011;49174;43.198;27.824;2023-04-01T00:34:37;24.08;;;15.95;;
63089;SDS011;49174;43.198;27.824;2023-04-01T00:37:05;24.35;;;16.17;;
63089;SDS011;49174;43.198;27.824;2023-04-01T00:39:31;27.13;;;17.88;;
63089;SDS011;49174;43.198;27.824;2023-04-01T00:41:58;26.20;;;18.15;;
63089;SDS011;49174;43.198;27.824;2023-04-01T00:44:26;33.17;;;17.30;;
63089;SDS011;49174;43.198;27.824;2023-04-01T00:46:54;24.85;;;16.85;;
63089;SDS011;49174;43.198;27.824;2023-04-01T00:49:20;25.95;;;17.77;;
63089;SDS011;49174;43.198;27.824;2023-04-01T00:51:51;28.90;;;20.15;;
63089;SDS011;49174;43.198;27.824;2023-04-01T00:54:21;29.55;;;20.10;;
63089;SDS011;49174;43.198;27.824;2023-04-01T00:56:48;32.97;;;21.23;;
63089;SDS011;49174;43.198;27.824;2023-04-01T00:59:22;38.13;;;23.92;;
63089;SDS011;49174;43.198;27.824;2023-04-01T01:01:51;35.83;;;20.15;;
63089;SDS011;49174;43.198;27.824;2023-04-01T01:04:27;30.90;;;19.48;;
63089;SDS011;49174;43.198;27.824;2023-04-01T01:15:16;30.77;;;20.80;;
63089;SDS011;49174;43.198;27.824;2023-04-01T01:17:51;44.67;;;23.40;;
63089;SDS011;49174;43.198;27.824;2023-04-01T01:36:16;38.88;;;24.75;;
63089;SDS011;49174;43.198;27.824;2023-04-01T01:38:46;40.85;;;24.85;;
63089;SDS011;49174;43.198;27.824;2023-04-01T01:41:13;43.47;;;25.55;;
63089;SDS011;49174;43.198;27.824;2023-04-01T01:43:43;57.90;;;23.77;;
63089;SDS011;49174;43.198;27.824;2023-04-01T01:46:20;44.30;;;23.10;;
63089;SDS011;49174;43.198;27.824;2023-04-01T01:48:49;41.63;;;22.85;;
63089;SDS011;49174;43.198;27.824;2023-04-01T01:51:17;44.65;;;23.98;;
63089;SDS011;49174;43.198;27.824;2023-04-01T01:53:43;43.03;;;24.70;;
63089;SDS011;49174;43.198;27.824;2023-04-01T01:56:10;37.13;;;23.70;;
63089;SDS011;49174;43.198;27.824;2023-04-01T01:58:38;40.45;;;24.85;;
63089;SDS011;49174;43.198;27.824;2023-04-01T02:01:12;37.55;;;23.60;;
63089;SDS011;49174;43.198;27.824;2023-04-01T02:03:42;50.55;;;24.23;;
63089;SDS011;49174;43.198;27.824;2023-04-01T02:06:11;41.83;;;22.75;;
63089;SDS011;49174;43.198;27.824;2023-04-01T02:11:34;35.97;;;20.55;;
63089;SDS011;49174;43.198;27.824;2023-04-01T02:14:14;36.28;;;22.27;;
63089;SDS011;49174;43.198;27.824;2023-04-01T02:16:49;27.95;;;19.88;;
63089;SDS011;49174;43.198;27.824;2023-04-01T02:19:17;33.97;;;20.88;;
63089;SDS011;49174;43.198;27.824;2023-04-01T02:21:49;27.05;;;18.80;;
63089;SDS011;49174;43.198;27.824;2023-04-01T02:24:18;30.48;;;19.40;;
63089;SDS011;49174;43.198;27.824;2023-04-01T02:26:48;30.70;;;20.45;;
63089;SDS011;49174;43.198;27.824;2023-04-01T02:29:16;31.60;;;19.42;;
63089;SDS011;49174;43.198;27.824;2023-04-01T02:31:44;28.30;;;21.85;;
63089;SDS011;49174;43.198;27.824;2023-04-01T02:34:10;31.95;;;24.65;;
63089;SDS011;49174;43.198;27.824;2023-04-01T02:36:36;35.33;;;25.77;;
63089;SDS011;49174;43.198;27.824;2023-04-01T02:39:03;39.33;;;29.25;;
63089;SDS011;49174;43.198;27.824;2023-04-01T02:41:30;40.28;;;29.27;;
63089;SDS011;49174;43.198;27.824;2023-04-01T02:43:56;38.15;;;26.70;;
63089;SDS011;49174;43.198;27.824;2023-04-01T02:46:23;38.80;;;27.65;;
63089;SDS011;49174;43.198;27.824;2023-04-01T02:48:49;38.53;;;28.30;;
63089;SDS011;49174;43.198;27.824;2023-04-01T02:51:15;34.05;;;27.02;;
63089;SDS011;49174;43.198;27.824;2023-04-01T02:53:41;33.80;;;25.92;;
63089;SDS011;49174;43.198;27.824;2023-04-01T02:56:06;36.53;;;26.70;;
63089;SDS011;49174;43.198;27.824;2023-04-01T02:58:32;34.67;;;25.90;;
63089;SDS011;49174;43.198;27.824;2023-04-01T03:00:57;34.25;;;23.75;;
63089;SDS011;49174;43.198;27.824;2023-04-01T03:03:23;61.20;;;43.10;;
63089;SDS011;49174;43.198;27.824;2023-04-01T03:05:48;38.20;;;26.65;;
63089;SDS011;49174;43.198;27.824;2023-04-01T03:08:14;37.92;;;26.40;;
63089;SDS011;49174;43.198;27.824;2023-04-01T03:10:39;40.05;;;24.52;;
63089;SDS011;49174;43.198;27.824;2023-04-01T03:13:05;34.13;;;23.83;;
63089;SDS011;49174;43.198;27.824;2023-04-01T03:15:31;34.53;;;23.63;;
63089;SDS011;49174;43.198;27.824;2023-04-01T03:17:56;34.80;;;21.45;;
63089;SDS011;49174;43.198;27.824;2023-04-01T03:20:22;28.73;;;20.65;;
63089;SDS011;49174;43.198;27.824;2023-04-01T03:22:47;31.35;;;20.70;;
63089;SDS011;49174;43.198;27.824;2023-04-01T03:25:13;32.35;;;22.55;;
63089;SDS011;49174;43.198;27.824;2023-04-01T03:27:39;30.90;;;20.02;;
63089;SDS011;49174;43.198;27.824;2023-04-01T03:30:05;37.22;;;21.88;;
63089;SDS011;49174;43.198;27.824;2023-04-01T03:32:31;37.13;;;24.92;;
63089;SDS011;49174;43.198;27.824;2023-04-01T03:34:57;44.85;;;24.67;;
63089;SDS011;49174;43.198;27.824;2023-04-01T03:37:23;33.22;;;20.90;;
63089;SDS011;49174;43.198;27.824;2023-04-01T03:39:49;39.78;;;22.58;;
63089;SDS011;49174;43.198;27.824;2023-04-01T03:42:14;32.35;;;21.88;;
63089;SDS011;49174;43.198;27.824;2023-04-01T03:44:40;31.05;;;20.42;;
63089;SDS011;49174;43.198;27.824;2023-04-01T03:47:05;33.63;;;22.30;;
63089;SDS011;49174;43.198;27.824;2023-04-01T03:49:31;33.90;;;23.05;;
63089;SDS011;49174;43.198;27.824;2023-04-01T03:51:58;34.85;;;19.75;;
63089;SDS011;49174;43.198;27.824;2023-04-01T03:54:23;31.00;;;20.02;;
63089;SDS011;49174;43.198;27.824;2023-04-01T03:56:49;35.08;;;21.60;;
63089;SDS011;49174;43.198;27.824;2023-04-01T03:59:15;32.97;;;20.67;;
63089;SDS011;49174;43.198;27.824;2023-04-01T04:01:40;27.98;;;20.63;;
63089;SDS011;49174;43.198;27.824;2023-04-01T04:04:06;31.65;;;20.67;;
63089;SDS011;49174;43.198;27.824;2023-04-01T04:06:32;32.38;;;21.08;;
63089;SDS011;49174;43.198;27.824;2023-04-01T04:08:58;30.55;;;21.88;;
63089;SDS011;49174;43.198;27.824;2023-04-01T04:11:24;29.77;;;21.40;;
63089;SDS011;49174;43.198;27.824;2023-04-01T04:13:49;28.00;;;19.13;;
63089;SDS011;49174;43.198;27.824;2023-04-01T04:16:15;30.63;;;22.08;;
63089;SDS011;49174;43.198;27.824;2023-04-01T04:18:42;33.08;;;24.02;;
63089;SDS011;49174;43.198;27.824;2023-04-01T04:21:10;33.53;;;22.65;;
63089;SDS011;49174;43.198;27.824;2023-04-01T04:23:37;34.83;;;23.45;;
63089;SDS011;49174;43.198;27.824;2023-04-01T04:26:05;32.67;;;22.60;;
63089;SDS011;49174;43.198;27.824;2023-04-01T04:28:31;35.45;;;22.13;;
63089;SDS011;49174;43.198;27.824;2023-04-01T04:30:57;36.10;;;24.65;;
63089;SDS011;49174;43.198;27.824;2023-04-01T04:33:23;41.38;;;27.38;;
63089;SDS011;49174;43.198;27.824;2023-04-01T04:35:49;49.78;;;28.30;;
63089;SDS011;49174;43.198;27.824;2023-04-01T04:38:15;73.63;;;37.85;;
63089;SDS011;49174;43.198;27.824;2023-04-01T04:40:54;115.47;;;47.35;;
63089;SDS011;49174;43.198;27.824;2023-04-01T04:43:19;173.25;;;65.40;;
63089;SDS011;49174;43.198;27.824;2023-04-01T04:45:46;169.02;;;68.80;;
63089;SDS011;49174;43.198;27.824;2023-04-01T04:48:12;89.40;;;45.05;;
63089;SDS011;49174;43.198;27.824;2023-04-01T04:50:43;60.55;;;35.38;;
63089;SDS011;49174;43.198;27.824;2023-04-01T04:53:13;50.17;;;27.23;;
63089;SDS011;49174;43.198;27.824;2023-04-01T04:55:47;45.17;;;27.15;;
63089;SDS011;49174;43.198;27.824;2023-04-01T04:58:16;42.70;;;27.27;;
63089;SDS011;49174;43.198;27.824;2023-04-01T05:00:42;40.35;;;23.25;;
63089;SDS011;49174;43.198;27.824;2023-04-01T05:03:08;40.10;;;24.10;;
63089;SDS011;49174;43.198;27.824;2023-04-01T05:05:35;38.85;;;23.67;;
63089;SDS011;49174;43.198;27.824;2023-04-01T05:08:00;42.08;;;25.25;;
63089;SDS011;49174;43.198;27.824;2023-04-01T05:10:26;48.55;;;24.00;;
63089;SDS011;49174;43.198;27.824;2023-04-01T05:12:52;41.20;;;25.60;;
63089;SDS011;49174;43.198;27.824;2023-04-01T05:15:17;37.15;;;23.77;;
63089;SDS011;49174;43.198;27.824;2023-04-01T05:17:43;39.97;;;23.52;;
63089;SDS011;49174;43.198;27.824;2023-04-01T05:20:08;32.15;;;21.42;;
63089;SDS011;49174;43.198;27.824;2023-04-01T05:22:34;31.98;;;22.38;;
63089;SDS011;49174;43.198;27.824;2023-04-01T05:25:00;40.22;;;27.17;;
63089;SDS011;49174;43.198;27.824;2023-04-01T05:27:26;42.38;;;29.38;;
63089;SDS011;49174;43.198;27.824;2023-04-01T05:29:51;37.58;;;26.25;;
63089;SDS011;49174;43.198;27.824;2023-04-01T05:32:16;37.22;;;26.38;;
63089;SDS011;49174;43.198;27.824;2023-04-01T05:34:42;44.85;;;26.98;;
63089;SDS011;49174;43.198;27.824;2023-04-01T05:37:08;39.63;;;24.50;;
63089;SDS011;49174;43.198;27.824;2023-04-01T05:39:36;35.97;;;22.33;;
63089;SDS011;49174;43.198;27.824;2023-04-01T05:42:03;35.13;;;22.77;;
63089;SDS011;49174;43.198;27.824;2023-04-01T05:44:31;32.97;;;21.23;;
63089;SDS011;49174;43.198;27.824;2023-04-01T05:46:57;35.85;;;20.35;;
63089;SDS011;49174;43.198;27.824;2023-04-01T05:49:22;26.60;;;19.98;;
63089;SDS011;49174;43.198;27.824;2023-04-01T05:51:48;33.60;;;20.05;;
63089;SDS011;49174;43.198;27.824;2023-04-01T05:54:13;30.05;;;18.80;;
63089;SDS011;49174;43.198;27.824;2023-04-01T05:56:39;31.45;;;19.33;;
63089;SDS011;49174;43.198;27.824;2023-04-01T05:59:04;31.83;;;18.40;;
63089;SDS011;49174;43.198;27.824;2023-04-01T06:01:30;27.55;;;18.45;;
63089;SDS011;49174;43.198;27.824;2023-04-01T06:03:56;38.20;;;20.70;;
63089;SDS011;49174;43.198;27.824;2023-04-01T06:06:25;25.70;;;17.95;;
63089;SDS011;49174;43.198;27.824;2023-04-01T06:08:52;24.95;;;16.38;;
63089;SDS011;49174;43.198;27.824;2023-04-01T06:11:55;28.42;;;16.05;;
63089;SDS011;49174;43.198;27.824;2023-04-01T06:20:12;24.67;;;14.25;;
63089;SDS011;49174;43.198;27.824;2023-04-01T06:28:52;19.45;;;13.88;;
63089;SDS011;49174;43.198;27.824;2023-04-01T06:40:05;22.77;;;14.30;;
63089;SDS011;49174;43.198;27.824;2023-04-01T06:43:12;31.65;;;17.98;;
63089;SDS011;49174;43.198;27.824;2023-04-01T06:49:07;24.42;;;15.68;;
63089;SDS011;49174;43.198;27.824;2023-04-01T06:54:21;23.13;;;15.60;;
63089;SDS011;49174;43.198;27.824;2023-04-01T06:56:54;20.75;;;14.63;;
63089;SDS011;49174;43.198;27.824;2023-04-01T06:59:25;21.25;;;13.98;;
63089;SDS011;49174;43.198;27.824;2023-04-01T07:01:56;24.38;;;12.93;;
63089;SDS011;49174;43.198;27.824;2023-04-01T07:04:26;19.38;;;12.25;;
63089;SDS011;49174;43.198;27.824;2023-04-01T07:07:06;23.58;;;13.73;;
63089;SDS011;49174;43.198;27.824;2023-04-01T07:09:40;30.95;;;17.50;;
63089;SDS011;49174;43.198;27.824;2023-04-01T07:12:28;28.08;;;14.48;;
63089;SDS011;49174;43.198;27.824;2023-04-01T07:14:57;54.25;;;26.27;;
63089;SDS011;49174;43.198;27.824;2023-04-01T07:17:33;31.02;;;15.75;;
63089;SDS011;49174;43.198;27.824;2023-04-01T07:20:05;20.85;;;9.98;;
63089;SDS011;49174;43.198;27.824;2023-04-01T07:22:46;20.25;;;9.10;;
63089;SDS011;49174;43.198;27.824;2023-04-01T07:25:17;49.00;;;21.58;;
63089;SDS011;49174;43.198;27.824;2023-04-01T07:27:46;56.83;;;23.17;;
63089;SDS011;49174;43.198;27.824;2023-04-01T07:30:19;56.72;;;23.48;;
63089;SDS011;49174;43.198;27.824;2023-04-01T07:32:47;46.67;;;21.83;;
63089;SDS011;49174;43.198;27.824;2023-04-01T07:53:04;24.30;;;15.75;;
63089;SDS011;49174;43.198;27.824;2023-04-01T08:06:20;10.15;;;7.50;;
63089;SDS011;49174;43.198;27.824;2023-04-01T08:17:05;11.85;;;5.47;;
63089;SDS011;49174;43.198;27.824;2023-04-01T08:22:16;13.68;;;6.20;;
63089;SDS011;49174;43.198;27.824;2023-04-01T08:24:48;11.55;;;5.30;;
63089;SDS011;49174;43.198;27.824;2023-04-01T08:29:48;10.95;;;5.50;;
63089;SDS011;49174;43.198;27.824;2023-04-01T08:32:24;8.25;;;4.72;;
63089;SDS011;49174;43.198;27.824;2023-04-01T08:35:05;9.05;;;4.80;;
63089;SDS011;49174;43.198;27.824;2023-04-01T08:37:35;11.35;;;4.50;;
63089;SDS011;49174;43.198;27.824;2023-04-01T08:40:14;8.30;;;4.82;;
63089;SDS011;49174;43.198;27.824;2023-04-01T08:42:50;9.50;;;4.65;;
63089;SDS011;49174;43.198;27.824;2023-04-01T08:53:47;11.30;;;6.07;;
63089;SDS011;49174;43.198;27.824;2023-04-01T08:56:17;9.60;;;5.78;;
63089;SDS011;49174;43.198;27.824;2023-04-01T09:01:17;13.70;;;5.40;;
63089;SDS011;49174;43.198;27.824;2023-04-01T09:17:29;8.00;;;5.00;;
63089;SDS011;49174;43.198;27.824;2023-04-01T09:23:38;8.88;;;4.30;;
63089;SDS011;49174;43.198;27.824;2023-04-01T09:26:33;10.38;;;4.03;;
63089;SDS011;49174;43.198;27.824;2023-04-01T09:46:06;11.23;;;4.10;;
63089;SDS011;49174;43.198;27.824;2023-04-01T10:00:43;37.53;;;16.52;;
63089;SDS011;49174;43.198;27.824;2023-04-01T10:03:41;34.80;;;14.95;;
63089;SDS011;49174;43.198;27.824;2023-04-01T10:22:46;29.73;;;13.00;;
63089;SDS011;49174;43.198;27.824;2023-04-01T10:31:14;14.27;;;3.97;;
63089;SDS011;49174;43.198;27.824;2023-04-01T10:39:55;10.63;;;4.32;;
63089;SDS011;49174;43.198;27.824;2023-04-01T11:05:58;11.80;;;4.20;;
63089;SDS011;49174;43.198;27.824;2023-04-01T11:38:30;10.93;;;5.00;;
63089;SDS011;49174;43.198;27.824;2023-04-01T11:43:40;15.10;;;5.82;;
63089;SDS011;49174;43.198;27.824;2023-04-01T11:46:12;15.20;;;5.03;;
63089;SDS011;49174;43.198;27.824;2023-04-01T11:54:46;10.38;;;3.70;;
63089;SDS011;49174;43.198;27.824;2023-04-01T11:59:52;9.57;;;4.07;;
63089;SDS011;49174;43.198;27.824;2023-04-01T12:08:27;9.30;;;4.35;;
63089;SDS011;49174;43.198;27.824;2023-04-01T12:13:53;9.30;;;3.40;;
63089;SDS011;49174;43.198;27.824;2023-04-01T12:28:10;17.38;;;8.15;;
63089;SDS011;49174;43.198;27.824;2023-04-01T12:44:31;13.50;;;5.85;;
63089;SDS011;49174;43.198;27.824;2023-04-01T12:47:07;8.65;;;4.47;;
63089;SDS011;49174;43.198;27.824;2023-04-01T12:55:35;8.82;;;4.32;;
63089;SDS011;49174;43.198;27.824;2023-04-01T13:15:28;14.55;;;4.90;;
63089;SDS011;49174;43.198;27.824;2023-04-01T13:42:59;12.15;;;5.90;;
63089;SDS011;49174;43.198;27.824;2023-04-01T13:45:38;15.95;;;7.38;;
63089;SDS011;49174;43.198;27.824;2023-04-01T13:50:46;11.80;;;5.50;;
63089;SDS011;49174;43.198;27.824;2023-04-01T13:56:33;20.55;;;10.20;;
63089;SDS011;49174;43.198;27.824;2023-04-01T14:10:07;34.85;;;13.98;;
63089;SDS011;49174;43.198;27.824;2023-04-01T14:26:21;33.63;;;13.73;;
63089;SDS011;49174;43.198;27.824;2023-04-01T14:40:36;46.65;;;19.52;;
63089;SDS011;49174;43.198;27.824;2023-04-01T14:51:45;43.15;;;13.88;;
63089;SDS011;49174;43.198;27.824;2023-04-01T14:56:37;60.10;;;22.83;;
63089;SDS011;49174;43.198;27.824;2023-04-01T15:01:55;41.67;;;17.02;;
63089;SDS011;49174;43.198;27.824;2023-04-01T15:07:35;38.78;;;14.63;;
63089;SDS011;49174;43.198;27.824;2023-04-01T15:13:30;11.18;;;5.13;;
63089;SDS011;49174;43.198;27.824;2023-04-01T15:21:30;18.27;;;9.27;;
63089;SDS011;49174;43.198;27.824;2023-04-01T15:24:07;9.50;;;5.85;;
63089;SDS011;49174;43.198;27.824;2023-04-01T15:31:58;12.75;;;5.55;;
63089;SDS011;49174;43.198;27.824;2023-04-01T15:48:11;12.77;;;4.78;;
63089;SDS011;49174;43.198;27.824;2023-04-01T15:51:02;6.95;;;3.90;;
63089;SDS011;49174;43.198;27.824;2023-04-01T15:57:21;13.05;;;4.07;;
63089;SDS011;49174;43.198;27.824;2023-04-01T16:02:18;12.57;;;4.20;;
63089;SDS011;49174;43.198;27.824;2023-04-01T16:13:18;13.38;;;5.22;;
63089;SDS011;49174;43.198;27.824;2023-04-01T16:18:41;10.55;;;4.32;;
63089;SDS011;49174;43.198;27.824;2023-04-01T17:36:35;11.75;;;5.32;;
63089;SDS011;49174;43.198;27.824;2023-04-01T17:44:40;13.32;;;5.40;;
63089;SDS011;49174;43.198;27.824;2023-04-01T17:47:36;11.25;;;5.80;;
63089;SDS011;49174;43.198;27.824;2023-04-01T17:52:58;18.15;;;6.97;;
63089;SDS011;49174;43.198;27.824;2023-04-01T17:55:43;13.25;;;8.43;;
63089;SDS011;49174;43.198;27.824;2023-04-01T18:14:36;15.05;;;7.43;;
63089;SDS011;49174;43.198;27.824;2023-04-01T18:25:40;19.75;;;6.50;;
63089;SDS011;49174;43.198;27.824;2023-04-01T18:30:58;16.48;;;6.82;;
63089;SDS011;49174;43.198;27.824;2023-04-01T18:33:41;12.73;;;5.70;;
63089;SDS011;49174;43.198;27.824;2023-04-01T18:39:07;14.32;;;7.50;;
63089;SDS011;49174;43.198;27.824;2023-04-01T18:49:45;4.80;;;1.30;;
63089;SDS011;49174;43.198;27.824;2023-04-01T18:52:21;2.67;;;1.50;;
63089;SDS011;49174;43.198;27.824;2023-04-01T18:57:38;2.78;;;1.88;;
63089;SDS011;49174;43.198;27.824;2023-04-01T19:00:17;2.57;;;1.77;;
63089;SDS011;49174;43.198;27.824;2023-04-01T19:05:52;3.80;;;1.80;;
63089;SDS011;49174;43.198;27.824;2023-04-01T19:08:33;3.58;;;2.10;;
63089;SDS011;49174;43.198;27.824;2023-04-01T19:11:09;3.28;;;2.10;;
63089;SDS011;49174;43.198;27.824;2023-04-01T19:19:20;6.15;;;3.08;;
63089;SDS011;49174;43.198;27.824;2023-04-01T19:21:56;6.35;;;3.95;;
63089;SDS011;49174;43.198;27.824;2023-04-01T19:32:52;11.88;;;5.45;;
63089;SDS011;49174;43.198;27.824;2023-04-01T19:43:23;14.82;;;6.45;;
63089;SDS011;49174;43.198;27.824;2023-04-01T19:46:16;9.88;;;5.78;;
63089;SDS011;49174;43.198;27.824;2023-04-01T20:04:43;7.00;;;3.17;;
63089;SDS011;49174;43.198;27.824;2023-04-01T20:07:16;6.03;;;3.90;;
63089;SDS011;49174;43.198;27.824;2023-04-01T20:09:50;5.45;;;2.83;;
63089;SDS011;49174;43.198;27.824;2023-04-01T20:15:20;4.20;;;2.78;;
63089;SDS011;49174;43.198;27.824;2023-04-01T20:18:18;3.75;;;2.03;;
63089;SDS011;49174;43.198;27.824;2023-04-01T20:20:53;6.93;;;2.88;;
63089;SDS011;49174;43.198;27.824;2023-04-01T20:23:47;5.63;;;2.90;;
63089;SDS011;49174;43.198;27.824;2023-04-01T20:26:25;4.70;;;2.38;;
63089;SDS011;49174;43.198;27.824;2023-04-01T20:32:07;8.50;;;4.93;;
63089;SDS011;49174;43.198;27.824;2023-04-01T20:34:57;8.93;;;4.65;;
63089;SDS011;49174;43.198;27.824;2023-04-01T20:37:49;5.60;;;3.50;;
63089;SDS011;49174;43.198;27.824;2023-04-01T21:05:11;12.52;;;7.03;;
63089;SDS011;49174;43.198;27.824;2023-04-01T21:11:10;14.68;;;9.35;;
63089;SDS011;49174;43.198;27.824;2023-04-01T21:14:24;15.82;;;10.43;;
63089;SDS011;49174;43.198;27.824;2023-04-01T21:17:14;16.13;;;10.45;;
63089;SDS011;49174;43.198;27.824;2023-04-01T21:22:47;15.95;;;11.38;;
63089;SDS011;49174;43.198;27.824;2023-04-01T21:25:55;13.10;;;9.77;;
63089;SDS011;49174;43.198;27.824;2023-04-01T21:31:03;12.30;;;7.85;;
63089;SDS011;49174;43.198;27.824;2023-04-01T21:33:41;10.65;;;6.75;;
63089;SDS011;49174;43.198;27.824;2023-04-01T21:39:46;12.27;;;7.68;;
63089;SDS011;49174;43.198;27.824;2023-04-01T21:48:10;11.30;;;6.93;;
63089;SDS011;49174;43.198;27.824;2023-04-01T21:53:34;15.48;;;9.63;;
63089;SDS011;49174;43.198;27.824;2023-04-01T21:58:59;17.58;;;9.70;;
63089;SDS011;49174;43.198;27.824;2023-04-01T22:10:13;18.63;;;11.65;;
63089;SDS011;49174;43.198;27.824;2023-04-01T22:18:04;14.98;;;10.52;;
63089;SDS011;49174;43.198;27.824;2023-04-01T22:20:50;19.65;;;12.13;;
63089;SDS011;49174;43.198;27.824;2023-04-01T22:28:57;17.92;;;12.13;;
63089;SDS011;49174;43.198;27.824;2023-04-01T22:31:47;14.90;;;11.30;;
63089;SDS011;49174;43.198;27.824;2023-04-01T22:45:21;15.27;;;9.48;;
63089;SDS011;49174;43.198;27.824;2023-04-01T22:56:42;24.25;;;10.98;;
63089;SDS011;49174;43.198;27.824;2023-04-01T22:59:17;20.33;;;9.23;;
63089;SDS011;49174;43.198;27.824;2023-04-01T23:01:54;9.38;;;5.70;;
63089;SDS011;49174;43.198;27.824;2023-04-01T23:04:29;8.75;;;4.30;;
63089;SDS011;49174;43.198;27.824;2023-04-01T23:07:00;6.20;;;2.97;;
63089;SDS011;49174;43.198;27.824;2023-04-01T23:09:31;4.38;;;2.35;;
63089;SDS011;49174;43.198;27.824;2023-04-01T23:12:04;3.13;;;2.10;;
63089;SDS011;49174;43.198;27.824;2023-04-01T23:14:47;3.63;;;2.03;;
63089;SDS011;49174;43.198;27.824;2023-04-01T23:22:35;4.45;;;1.92;;
63089;SDS011;49174;43.198;27.824;2023-04-01T23:25:43;2.53;;;1.65;;
63089;SDS011;49174;43.198;27.824;2023-04-01T23:28:43;3.08;;;1.58;;
63089;SDS011;49174;43.198;27.824;2023-04-01T23:31:35;2.90;;;1.77;;
63089;SDS011;49174;43.198;27.824;2023-04-01T23:42:02;1.58;;;1.00;;
63089;SDS011;49174;43.198;27.824;2023-04-01T23:44:30;1.60;;;0.80;;
63089;SDS011;49174;43.198;27.824;2023-04-01T23:46:58;1.45;;;1.10;;
63089;SDS011;49174;43.198;27.824;2023-04-01T23:49:39;1.45;;;1.00;;
63089;SDS011;49174;43.198;27.824;2023-04-01T23:52:17;1.27;;;0.90;;
63089;SDS011;49174;43.198;27.824;2023-04-01T23:54:48;0.60;;;0.52;;
63089;SDS011;49174;43.198;27.824;2023-04-01T23:57:30;1.20;;;0.70;;
